Hogarty, Wisconsin
Current Conditions -  °F | °C
As of 1:55 AM on Friday 24 Oct 2014 (Local Time) from KAIG Reporting Station
Haze Haze  
Wind Chill: 41°   Ceiling: 300
Heat Index: 44°   Visibility: 1mi
Dew Point: 44°   Wind: 6mph
Humidity: 100%   Direction: 280°W
Pressure: 30.01"   Gusts: NA
Location:  45.0192°N, 89.2792°W
Report Text: KAIG 240655Z AUTO 28005KT 1SM BR OVC003 07/07 A3001 RMK AO2 T00670067
Loading
Personal Weather Stations






























Interactive Weather Map
Tropical Storm Tracking
New forecast layout! Learn more

10-Day Weather Forecast

Advertisements
Track Severe Weather on mobile